sensor_id;sensor_type;location;lat;lon;timestamp;temperature;humidity
16517;DHT22;8371;52.272;9.746;2022-12-24T00:00:20;10.40;88.80
16517;DHT22;8371;52.272;9.746;2022-12-24T00:02:45;10.40;88.60
16517;DHT22;8371;52.272;9.746;2022-12-24T00:05:11;10.40;88.50
16517;DHT22;8371;52.272;9.746;2022-12-24T00:07:37;10.40;88.30
16517;DHT22;8371;52.272;9.746;2022-12-24T00:10:04;10.40;88.50
16517;DHT22;8371;52.272;9.746;2022-12-24T00:12:30;10.40;88.40
16517;DHT22;8371;52.272;9.746;2022-12-24T00:14:56;10.40;88.40
16517;DHT22;8371;52.272;9.746;2022-12-24T00:17:21;10.40;88.50
16517;DHT22;8371;52.272;9.746;2022-12-24T00:19:47;10.30;88.40
16517;DHT22;8371;52.272;9.746;2022-12-24T00:22:13;10.40;88.60
16517;DHT22;8371;52.272;9.746;2022-12-24T00:24:38;10.30;88.60
16517;DHT22;8371;52.272;9.746;2022-12-24T00:27:04;10.30;88.60
16517;DHT22;8371;52.272;9.746;2022-12-24T00:29:31;10.40;88.60
16517;DHT22;8371;52.272;9.746;2022-12-24T00:31:57;10.30;88.60
16517;DHT22;8371;52.272;9.746;2022-12-24T00:34:23;10.40;88.70
16517;DHT22;8371;52.272;9.746;2022-12-24T00:36:49;10.40;88.60
16517;DHT22;8371;52.272;9.746;2022-12-24T00:39:15;10.30;88.50
16517;DHT22;8371;52.272;9.746;2022-12-24T00:41:41;10.40;89.30
16517;DHT22;8371;52.272;9.746;2022-12-24T00:44:07;10.30;88.50
16517;DHT22;8371;52.272;9.746;2022-12-24T00:46:39;10.30;88.50
16517;DHT22;8371;52.272;9.746;2022-12-24T00:49:06;10.30;88.50
16517;DHT22;8371;52.272;9.746;2022-12-24T00:51:32;10.30;88.50
16517;DHT22;8371;52.272;9.746;2022-12-24T00:53:58;10.30;88.50
16517;DHT22;8371;52.272;9.746;2022-12-24T00:56:24;10.30;88.50
16517;DHT22;8371;52.272;9.746;2022-12-24T00:58:51;10.30;88.60
16517;DHT22;8371;52.272;9.746;2022-12-24T01:01:17;10.30;88.50
16517;DHT22;8371;52.272;9.746;2022-12-24T01:03:42;10.30;88.60
16517;DHT22;8371;52.272;9.746;2022-12-24T01:06:11;10.30;88.60
16517;DHT22;8371;52.272;9.746;2022-12-24T01:08:37;10.30;88.50
16517;DHT22;8371;52.272;9.746;2022-12-24T01:11:04;10.30;88.60
16517;DHT22;8371;52.272;9.746;2022-12-24T01:13:31;10.30;88.60
16517;DHT22;8371;52.272;9.746;2022-12-24T01:15:57;10.30;88.60
16517;DHT22;8371;52.272;9.746;2022-12-24T01:18:23;10.30;88.60
16517;DHT22;8371;52.272;9.746;2022-12-24T01:21:00;10.30;88.60
16517;DHT22;8371;52.272;9.746;2022-12-24T01:23:27;10.30;88.50
16517;DHT22;8371;52.272;9.746;2022-12-24T01:25:53;10.40;88.60
16517;DHT22;8371;52.272;9.746;2022-12-24T01:28:19;10.30;88.50
16517;DHT22;8371;52.272;9.746;2022-12-24T01:30:45;10.30;88.50
16517;DHT22;8371;52.272;9.746;2022-12-24T01:33:12;10.30;88.60
16517;DHT22;8371;52.272;9.746;2022-12-24T01:35:41;10.30;88.60
16517;DHT22;8371;52.272;9.746;2022-12-24T01:38:07;10.30;88.60
16517;DHT22;8371;52.272;9.746;2022-12-24T01:40:33;10.30;88.60
16517;DHT22;8371;52.272;9.746;2022-12-24T01:43:20;10.30;88.60
16517;DHT22;8371;52.272;9.746;2022-12-24T01:45:57;10.30;88.60
16517;DHT22;8371;52.272;9.746;2022-12-24T01:51:34;10.30;88.70
16517;DHT22;8371;52.272;9.746;2022-12-24T01:56:48;10.30;88.70
16517;DHT22;8371;52.272;9.746;2022-12-24T01:59:15;10.30;88.70
16517;DHT22;8371;52.272;9.746;2022-12-24T02:01:42;10.30;88.70
16517;DHT22;8371;52.272;9.746;2022-12-24T02:04:11;10.30;88.70
16517;DHT22;8371;52.272;9.746;2022-12-24T02:06:37;10.40;88.80
16517;DHT22;8371;52.272;9.746;2022-12-24T02:09:03;10.40;88.90
16517;DHT22;8371;52.272;9.746;2022-12-24T02:11:29;10.40;89.00
16517;DHT22;8371;52.272;9.746;2022-12-24T02:13:57;10.40;89.40
16517;DHT22;8371;52.272;9.746;2022-12-24T02:16:47;10.40;89.80
16517;DHT22;8371;52.272;9.746;2022-12-24T02:19:35;10.50;90.10
16517;DHT22;8371;52.272;9.746;2022-12-24T02:22:06;10.60;90.40
16517;DHT22;8371;52.272;9.746;2022-12-24T02:24:44;10.70;90.50
16517;DHT22;8371;52.272;9.746;2022-12-24T02:27:30;10.90;90.60
16517;DHT22;8371;52.272;9.746;2022-12-24T02:30:04;11.00;90.60
16517;DHT22;8371;52.272;9.746;2022-12-24T02:35:30;11.30;90.60
16517;DHT22;8371;52.272;9.746;2022-12-24T02:38:00;11.40;90.70
16517;DHT22;8371;52.272;9.746;2022-12-24T02:40:35;11.50;90.30
16517;DHT22;8371;52.272;9.746;2022-12-24T02:43:03;11.60;90.30
16517;DHT22;8371;52.272;9.746;2022-12-24T02:45:31;11.70;90.20
16517;DHT22;8371;52.272;9.746;2022-12-24T02:47:58;11.70;90.10
16517;DHT22;8371;52.272;9.746;2022-12-24T02:50:24;11.80;90.00
16517;DHT22;8371;52.272;9.746;2022-12-24T02:52:51;11.80;90.00
16517;DHT22;8371;52.272;9.746;2022-12-24T03:06:49;12.10;89.50
16517;DHT22;8371;52.272;9.746;2022-12-24T03:09:18;12.10;89.40
16517;DHT22;8371;52.272;9.746;2022-12-24T03:11:49;12.10;89.20
16517;DHT22;8371;52.272;9.746;2022-12-24T03:14:13;12.10;89.30
16517;DHT22;8371;52.272;9.746;2022-12-24T03:16:41;12.10;90.00
16517;DHT22;8371;52.272;9.746;2022-12-24T03:19:07;12.10;89.20
16517;DHT22;8371;52.272;9.746;2022-12-24T03:21:34;12.10;89.10
16517;DHT22;8371;52.272;9.746;2022-12-24T03:24:02;12.20;89.10
16517;DHT22;8371;52.272;9.746;2022-12-24T03:26:29;12.20;89.00
16517;DHT22;8371;52.272;9.746;2022-12-24T03:28:56;12.20;88.90
16517;DHT22;8371;52.272;9.746;2022-12-24T03:31:22;12.20;88.90
16517;DHT22;8371;52.272;9.746;2022-12-24T03:33:48;12.20;88.80
16517;DHT22;8371;52.272;9.746;2022-12-24T03:36:14;12.20;88.80
16517;DHT22;8371;52.272;9.746;2022-12-24T03:38:40;12.20;88.70
16517;DHT22;8371;52.272;9.746;2022-12-24T03:41:07;12.20;88.70
16517;DHT22;8371;52.272;9.746;2022-12-24T03:43:33;12.20;88.60
16517;DHT22;8371;52.272;9.746;2022-12-24T03:46:04;12.20;88.60
16517;DHT22;8371;52.272;9.746;2022-12-24T03:48:32;12.20;88.60
16517;DHT22;8371;52.272;9.746;2022-12-24T03:50:58;12.30;88.60
16517;DHT22;8371;52.272;9.746;2022-12-24T03:53:24;12.30;88.60
16517;DHT22;8371;52.272;9.746;2022-12-24T03:55:50;12.30;88.60
16517;DHT22;8371;52.272;9.746;2022-12-24T03:58:15;12.30;87.90
16517;DHT22;8371;52.272;9.746;2022-12-24T04:00:41;12.30;88.50
16517;DHT22;8371;52.272;9.746;2022-12-24T04:03:07;12.30;88.40
16517;DHT22;8371;52.272;9.746;2022-12-24T04:05:32;12.30;89.20
16517;DHT22;8371;52.272;9.746;2022-12-24T04:07:58;12.30;88.30
16517;DHT22;8371;52.272;9.746;2022-12-24T04:10:23;12.40;88.30
16517;DHT22;8371;52.272;9.746;2022-12-24T04:12:49;12.40;88.20
16517;DHT22;8371;52.272;9.746;2022-12-24T04:15:16;12.40;88.10
16517;DHT22;8371;52.272;9.746;2022-12-24T04:17:41;12.40;88.10
16517;DHT22;8371;52.272;9.746;2022-12-24T04:20:08;12.30;88.00
16517;DHT22;8371;52.272;9.746;2022-12-24T04:22:34;12.40;87.90
16517;DHT22;8371;52.272;9.746;2022-12-24T04:24:59;12.40;87.90
16517;DHT22;8371;52.272;9.746;2022-12-24T04:27:25;12.30;87.70
16517;DHT22;8371;52.272;9.746;2022-12-24T04:29:51;12.40;87.70
16517;DHT22;8371;52.272;9.746;2022-12-24T04:32:16;12.30;87.70
16517;DHT22;8371;52.272;9.746;2022-12-24T04:34:42;12.30;87.60
16517;DHT22;8371;52.272;9.746;2022-12-24T04:37:08;12.40;87.60
16517;DHT22;8371;52.272;9.746;2022-12-24T04:39:33;12.40;87.70
16517;DHT22;8371;52.272;9.746;2022-12-24T04:41:59;12.40;87.50
16517;DHT22;8371;52.272;9.746;2022-12-24T04:44:25;12.40;87.40
16517;DHT22;8371;52.272;9.746;2022-12-24T04:46:50;12.40;87.40
16517;DHT22;8371;52.272;9.746;2022-12-24T04:49:16;12.50;87.00
16517;DHT22;8371;52.272;9.746;2022-12-24T04:51:42;12.40;87.60
16517;DHT22;8371;52.272;9.746;2022-12-24T04:54:07;12.40;86.30
16517;DHT22;8371;52.272;9.746;2022-12-24T04:56:33;12.40;86.40
16517;DHT22;8371;52.272;9.746;2022-12-24T04:58:59;12.40;85.80
16517;DHT22;8371;52.272;9.746;2022-12-24T05:01:28;12.40;86.60
16517;DHT22;8371;52.272;9.746;2022-12-24T05:03:54;12.40;86.70
16517;DHT22;8371;52.272;9.746;2022-12-24T05:06:22;12.40;86.70
16517;DHT22;8371;52.272;9.746;2022-12-24T05:08:48;12.40;86.70
16517;DHT22;8371;52.272;9.746;2022-12-24T05:11:14;12.40;86.70
16517;DHT22;8371;52.272;9.746;2022-12-24T05:13:44;12.40;86.70
16517;DHT22;8371;52.272;9.746;2022-12-24T05:16:11;12.40;86.60
16517;DHT22;8371;52.272;9.746;2022-12-24T05:18:37;12.40;86.50
16517;DHT22;8371;52.272;9.746;2022-12-24T05:21:07;12.40;86.50
16517;DHT22;8371;52.272;9.746;2022-12-24T05:23:32;12.40;86.50
16517;DHT22;8371;52.272;9.746;2022-12-24T05:26:32;12.40;86.60
16517;DHT22;8371;52.272;9.746;2022-12-24T05:28:57;12.40;86.60
16517;DHT22;8371;52.272;9.746;2022-12-24T05:31:24;12.40;86.60
16517;DHT22;8371;52.272;9.746;2022-12-24T05:33:51;12.40;86.50
16517;DHT22;8371;52.272;9.746;2022-12-24T05:36:18;12.30;86.40
16517;DHT22;8371;52.272;9.746;2022-12-24T05:38:44;12.30;86.30
16517;DHT22;8371;52.272;9.746;2022-12-24T05:41:10;12.30;86.40
16517;DHT22;8371;52.272;9.746;2022-12-24T05:43:36;12.30;86.60
16517;DHT22;8371;52.272;9.746;2022-12-24T05:46:08;12.30;86.50
16517;DHT22;8371;52.272;9.746;2022-12-24T05:48:34;12.30;86.50
16517;DHT22;8371;52.272;9.746;2022-12-24T05:51:05;12.30;86.60
16517;DHT22;8371;52.272;9.746;2022-12-24T05:53:31;12.30;86.50
16517;DHT22;8371;52.272;9.746;2022-12-24T05:56:05;12.30;86.50
16517;DHT22;8371;52.272;9.746;2022-12-24T05:58:32;12.20;86.50
16517;DHT22;8371;52.272;9.746;2022-12-24T06:01:00;12.20;86.40
16517;DHT22;8371;52.272;9.746;2022-12-24T06:03:26;12.20;86.30
16517;DHT22;8371;52.272;9.746;2022-12-24T06:08:27;12.20;86.40
16517;DHT22;8371;52.272;9.746;2022-12-24T06:10:58;12.20;86.40
16517;DHT22;8371;52.272;9.746;2022-12-24T06:13:25;12.20;86.50
16517;DHT22;8371;52.272;9.746;2022-12-24T06:15:55;12.20;86.50
16517;DHT22;8371;52.272;9.746;2022-12-24T06:18:31;12.20;86.40
16517;DHT22;8371;52.272;9.746;2022-12-24T06:20:57;12.20;86.50
16517;DHT22;8371;52.272;9.746;2022-12-24T06:23:23;12.20;86.50
16517;DHT22;8371;52.272;9.746;2022-12-24T06:25:49;12.20;86.40
16517;DHT22;8371;52.272;9.746;2022-12-24T06:28:16;12.30;86.60
16517;DHT22;8371;52.272;9.746;2022-12-24T06:30:46;12.30;86.30
16517;DHT22;8371;52.272;9.746;2022-12-24T06:33:13;12.30;86.30
16517;DHT22;8371;52.272;9.746;2022-12-24T06:35:39;12.30;86.30
16517;DHT22;8371;52.272;9.746;2022-12-24T06:38:05;12.30;86.20
16517;DHT22;8371;52.272;9.746;2022-12-24T06:40:30;12.30;86.10
16517;DHT22;8371;52.272;9.746;2022-12-24T06:42:56;12.30;85.90
16517;DHT22;8371;52.272;9.746;2022-12-24T06:45:21;12.30;85.80
16517;DHT22;8371;52.272;9.746;2022-12-24T06:47:47;12.20;85.80
16517;DHT22;8371;52.272;9.746;2022-12-24T06:50:13;12.20;85.80
16517;DHT22;8371;52.272;9.746;2022-12-24T06:52:38;12.20;85.80
16517;DHT22;8371;52.272;9.746;2022-12-24T06:55:05;12.20;85.70
16517;DHT22;8371;52.272;9.746;2022-12-24T06:57:30;12.20;85.80
16517;DHT22;8371;52.272;9.746;2022-12-24T06:59:57;12.20;85.80
16517;DHT22;8371;52.272;9.746;2022-12-24T07:02:23;12.20;85.70
16517;DHT22;8371;52.272;9.746;2022-12-24T07:04:49;12.10;85.70
16517;DHT22;8371;52.272;9.746;2022-12-24T07:07:15;12.10;85.70
16517;DHT22;8371;52.272;9.746;2022-12-24T07:09:40;12.10;85.90
16517;DHT22;8371;52.272;9.746;2022-12-24T07:12:06;12.10;85.70
16517;DHT22;8371;52.272;9.746;2022-12-24T07:14:32;12.10;85.80
16517;DHT22;8371;52.272;9.746;2022-12-24T07:16:57;12.10;85.80
16517;DHT22;8371;52.272;9.746;2022-12-24T07:19:23;12.10;85.70
16517;DHT22;8371;52.272;9.746;2022-12-24T07:21:49;12.10;85.70
16517;DHT22;8371;52.272;9.746;2022-12-24T07:24:15;12.10;85.50
16517;DHT22;8371;52.272;9.746;2022-12-24T07:26:41;12.10;85.60
16517;DHT22;8371;52.272;9.746;2022-12-24T07:29:07;12.10;85.50
16517;DHT22;8371;52.272;9.746;2022-12-24T07:31:32;12.10;85.40
16517;DHT22;8371;52.272;9.746;2022-12-24T07:33:58;12.10;85.20
16517;DHT22;8371;52.272;9.746;2022-12-24T07:36:24;12.10;85.10
16517;DHT22;8371;52.272;9.746;2022-12-24T07:38:50;12.10;85.10
16517;DHT22;8371;52.272;9.746;2022-12-24T07:41:17;12.00;85.00
16517;DHT22;8371;52.272;9.746;2022-12-24T07:43:42;12.00;84.80
16517;DHT22;8371;52.272;9.746;2022-12-24T07:46:08;11.90;84.70
16517;DHT22;8371;52.272;9.746;2022-12-24T07:48:34;11.90;84.70
16517;DHT22;8371;52.272;9.746;2022-12-24T07:51:00;11.90;84.60
16517;DHT22;8371;52.272;9.746;2022-12-24T07:53:26;11.80;85.20
16517;DHT22;8371;52.272;9.746;2022-12-24T07:55:52;11.70;84.50
16517;DHT22;8371;52.272;9.746;2022-12-24T07:58:19;11.70;84.70
16517;DHT22;8371;52.272;9.746;2022-12-24T08:00:45;11.70;84.80
16517;DHT22;8371;52.272;9.746;2022-12-24T08:03:15;11.60;84.80
16517;DHT22;8371;52.272;9.746;2022-12-24T08:05:41;11.60;84.90
16517;DHT22;8371;52.272;9.746;2022-12-24T08:08:07;11.60;85.10
16517;DHT22;8371;52.272;9.746;2022-12-24T08:10:33;11.50;85.20
16517;DHT22;8371;52.272;9.746;2022-12-24T08:12:58;11.50;85.20
16517;DHT22;8371;52.272;9.746;2022-12-24T08:15:24;11.50;85.20
16517;DHT22;8371;52.272;9.746;2022-12-24T08:17:50;11.50;85.30
16517;DHT22;8371;52.272;9.746;2022-12-24T08:20:15;11.50;85.40
16517;DHT22;8371;52.272;9.746;2022-12-24T08:22:42;11.50;85.60
16517;DHT22;8371;52.272;9.746;2022-12-24T08:25:08;11.50;85.80
16517;DHT22;8371;52.272;9.746;2022-12-24T08:27:35;11.50;86.00
16517;DHT22;8371;52.272;9.746;2022-12-24T08:30:02;11.60;86.70
16517;DHT22;8371;52.272;9.746;2022-12-24T08:32:28;11.60;86.30
16517;DHT22;8371;52.272;9.746;2022-12-24T08:34:53;11.70;86.30
16517;DHT22;8371;52.272;9.746;2022-12-24T08:37:19;11.70;86.40
16517;DHT22;8371;52.272;9.746;2022-12-24T08:39:45;11.80;86.50
16517;DHT22;8371;52.272;9.746;2022-12-24T08:42:11;11.80;86.60
16517;DHT22;8371;52.272;9.746;2022-12-24T08:44:36;11.80;86.50
16517;DHT22;8371;52.272;9.746;2022-12-24T08:47:02;11.90;86.50
16517;DHT22;8371;52.272;9.746;2022-12-24T08:49:28;11.90;87.00
16517;DHT22;8371;52.272;9.746;2022-12-24T08:51:53;12.00;86.50
16517;DHT22;8371;52.272;9.746;2022-12-24T08:54:19;12.00;86.40
16517;DHT22;8371;52.272;9.746;2022-12-24T08:56:46;12.10;86.40
16517;DHT22;8371;52.272;9.746;2022-12-24T08:59:12;12.10;86.40
16517;DHT22;8371;52.272;9.746;2022-12-24T09:01:38;12.10;86.40
16517;DHT22;8371;52.272;9.746;2022-12-24T09:04:04;12.20;86.50
16517;DHT22;8371;52.272;9.746;2022-12-24T09:06:31;12.20;86.50
16517;DHT22;8371;52.272;9.746;2022-12-24T09:08:56;12.30;86.50
16517;DHT22;8371;52.272;9.746;2022-12-24T09:11:22;12.30;86.40
16517;DHT22;8371;52.272;9.746;2022-12-24T09:13:48;12.40;86.40
16517;DHT22;8371;52.272;9.746;2022-12-24T09:16:13;12.40;86.30
16517;DHT22;8371;52.272;9.746;2022-12-24T09:18:39;12.40;86.10
16517;DHT22;8371;52.272;9.746;2022-12-24T09:21:10;12.50;86.00
16517;DHT22;8371;52.272;9.746;2022-12-24T09:23:39;12.50;85.80
16517;DHT22;8371;52.272;9.746;2022-12-24T09:26:06;12.50;85.70
16517;DHT22;8371;52.272;9.746;2022-12-24T09:28:32;12.50;85.70
16517;DHT22;8371;52.272;9.746;2022-12-24T09:31:00;12.50;85.70
16517;DHT22;8371;52.272;9.746;2022-12-24T09:33:31;12.50;86.40
16517;DHT22;8371;52.272;9.746;2022-12-24T09:35:57;12.50;85.60
16517;DHT22;8371;52.272;9.746;2022-12-24T09:38:23;12.50;85.50
16517;DHT22;8371;52.272;9.746;2022-12-24T09:40:50;12.50;85.50
16517;DHT22;8371;52.272;9.746;2022-12-24T09:43:19;12.50;85.40
16517;DHT22;8371;52.272;9.746;2022-12-24T09:48:17;12.50;85.20
16517;DHT22;8371;52.272;9.746;2022-12-24T09:50:58;12.50;85.40
16517;DHT22;8371;52.272;9.746;2022-12-24T09:53:38;12.50;85.60
16517;DHT22;8371;52.272;9.746;2022-12-24T09:56:09;12.50;85.60
16517;DHT22;8371;52.272;9.746;2022-12-24T09:58:39;12.50;86.30
16517;DHT22;8371;52.272;9.746;2022-12-24T10:01:05;12.40;85.60
16517;DHT22;8371;52.272;9.746;2022-12-24T10:03:31;12.50;85.70
16517;DHT22;8371;52.272;9.746;2022-12-24T10:06:10;12.50;86.00
16517;DHT22;8371;52.272;9.746;2022-12-24T10:14:30;12.60;86.00
16517;DHT22;8371;52.272;9.746;2022-12-24T10:20:11;12.80;86.30
16517;DHT22;8371;52.272;9.746;2022-12-24T10:25:25;12.90;86.00
16517;DHT22;8371;52.272;9.746;2022-12-24T10:27:51;13.00;85.90
16517;DHT22;8371;52.272;9.746;2022-12-24T10:30:20;13.00;85.90
16517;DHT22;8371;52.272;9.746;2022-12-24T10:32:49;13.10;86.00
16517;DHT22;8371;52.272;9.746;2022-12-24T10:35:25;13.20;85.90
16517;DHT22;8371;52.272;9.746;2022-12-24T10:37:49;13.20;85.90
16517;DHT22;8371;52.272;9.746;2022-12-24T10:40:24;13.30;86.50
16517;DHT22;8371;52.272;9.746;2022-12-24T10:42:49;13.30;85.50
16517;DHT22;8371;52.272;9.746;2022-12-24T10:45:17;13.40;85.40
16517;DHT22;8371;52.272;9.746;2022-12-24T10:47:47;13.40;85.40
16517;DHT22;8371;52.272;9.746;2022-12-24T10:50:40;13.50;85.30
16517;DHT22;8371;52.272;9.746;2022-12-24T10:53:18;13.50;85.40
16517;DHT22;8371;52.272;9.746;2022-12-24T10:55:46;13.60;85.40
16517;DHT22;8371;52.272;9.746;2022-12-24T10:58:16;13.60;86.20
16517;DHT22;8371;52.272;9.746;2022-12-24T11:00:51;13.70;85.20
16517;DHT22;8371;52.272;9.746;2022-12-24T11:03:21;13.70;85.00
16517;DHT22;8371;52.272;9.746;2022-12-24T11:05:58;13.80;85.00
16517;DHT22;8371;52.272;9.746;2022-12-24T11:08:17;13.80;84.80
16517;DHT22;8371;52.272;9.746;2022-12-24T11:10:56;13.90;84.60
16517;DHT22;8371;52.272;9.746;2022-12-24T11:13:30;13.90;84.10
16517;DHT22;8371;52.272;9.746;2022-12-24T11:18:47;13.90;84.70
16517;DHT22;8371;52.272;9.746;2022-12-24T11:21:18;13.80;83.80
16517;DHT22;8371;52.272;9.746;2022-12-24T11:23:49;13.80;83.80
16517;DHT22;8371;52.272;9.746;2022-12-24T11:26:29;13.80;83.90
16517;DHT22;8371;52.272;9.746;2022-12-24T11:29:12;13.80;84.10
16517;DHT22;8371;52.272;9.746;2022-12-24T11:31:39;13.80;84.20
16517;DHT22;8371;52.272;9.746;2022-12-24T11:34:24;13.70;84.20
16517;DHT22;8371;52.272;9.746;2022-12-24T11:36:50;13.70;84.20
16517;DHT22;8371;52.272;9.746;2022-12-24T11:39:23;13.70;84.10
16517;DHT22;8371;52.272;9.746;2022-12-24T11:41:50;13.70;84.10
16517;DHT22;8371;52.272;9.746;2022-12-24T11:44:27;13.70;84.10
16517;DHT22;8371;52.272;9.746;2022-12-24T11:46:54;13.70;83.90
16517;DHT22;8371;52.272;9.746;2022-12-24T11:49:28;13.70;83.70
16517;DHT22;8371;52.272;9.746;2022-12-24T11:52:15;13.60;83.50
16517;DHT22;8371;52.272;9.746;2022-12-24T11:54:44;13.60;83.40
16517;DHT22;8371;52.272;9.746;2022-12-24T11:57:11;13.50;83.40
16517;DHT22;8371;52.272;9.746;2022-12-24T11:59:44;13.40;83.30
16517;DHT22;8371;52.272;9.746;2022-12-24T12:02:36;13.30;83.40
16517;DHT22;8371;52.272;9.746;2022-12-24T12:05:20;13.20;83.50
16517;DHT22;8371;52.272;9.746;2022-12-24T12:07:46;13.20;83.80
16517;DHT22;8371;52.272;9.746;2022-12-24T12:10:27;13.10;83.90
16517;DHT22;8371;52.272;9.746;2022-12-24T12:13:07;13.10;84.20
16517;DHT22;8371;52.272;9.746;2022-12-24T12:15:37;13.00;84.30
16517;DHT22;8371;52.272;9.746;2022-12-24T12:18:23;13.00;85.10
16517;DHT22;8371;52.272;9.746;2022-12-24T12:20:53;13.00;84.50
16517;DHT22;8371;52.272;9.746;2022-12-24T12:23:30;13.00;84.60
16517;DHT22;8371;52.272;9.746;2022-12-24T12:26:18;13.00;84.70
16517;DHT22;8371;52.272;9.746;2022-12-24T12:28:53;13.00;84.90
16517;DHT22;8371;52.272;9.746;2022-12-24T12:31:29;13.00;85.30
16517;DHT22;8371;52.272;9.746;2022-12-24T12:34:10;13.00;85.20
16517;DHT22;8371;52.272;9.746;2022-12-24T12:36:42;13.00;85.20
16517;DHT22;8371;52.272;9.746;2022-12-24T12:39:09;13.10;85.20
16517;DHT22;8371;52.272;9.746;2022-12-24T12:47:31;13.20;85.00
16517;DHT22;8371;52.272;9.746;2022-12-24T12:50:10;13.10;84.90
16517;DHT22;8371;52.272;9.746;2022-12-24T12:55:34;13.10;85.00
16517;DHT22;8371;52.272;9.746;2022-12-24T12:58:00;13.10;85.00
16517;DHT22;8371;52.272;9.746;2022-12-24T13:00:30;13.20;85.00
16517;DHT22;8371;52.272;9.746;2022-12-24T13:03:23;13.20;85.00
16517;DHT22;8371;52.272;9.746;2022-12-24T13:08:39;13.20;84.80
16517;DHT22;8371;52.272;9.746;2022-12-24T13:16:47;13.30;84.80
16517;DHT22;8371;52.272;9.746;2022-12-24T13:21:45;13.30;85.00
16517;DHT22;8371;52.272;9.746;2022-12-24T13:24:18;13.30;85.10
16517;DHT22;8371;52.272;9.746;2022-12-24T13:27:02;13.40;85.20
16517;DHT22;8371;52.272;9.746;2022-12-24T13:34:52;13.50;84.50
16517;DHT22;8371;52.272;9.746;2022-12-24T13:37:30;13.60;84.30
16517;DHT22;8371;52.272;9.746;2022-12-24T13:42:49;13.60;84.30
16517;DHT22;8371;52.272;9.746;2022-12-24T13:50:42;13.70;84.30
16517;DHT22;8371;52.272;9.746;2022-12-24T13:53:22;13.80;84.20
16517;DHT22;8371;52.272;9.746;2022-12-24T13:56:06;13.80;84.20
16517;DHT22;8371;52.272;9.746;2022-12-24T13:58:38;13.80;84.70
16517;DHT22;8371;52.272;9.746;2022-12-24T14:01:10;13.80;83.80
16517;DHT22;8371;52.272;9.746;2022-12-24T14:03:43;13.80;83.80
16517;DHT22;8371;52.272;9.746;2022-12-24T14:06:28;13.80;83.60
16517;DHT22;8371;52.272;9.746;2022-12-24T14:09:10;13.80;83.50
16517;DHT22;8371;52.272;9.746;2022-12-24T14:14:29;13.80;83.20
16517;DHT22;8371;52.272;9.746;2022-12-24T14:17:01;13.80;83.00
16517;DHT22;8371;52.272;9.746;2022-12-24T14:19:42;13.70;82.70
16517;DHT22;8371;52.272;9.746;2022-12-24T14:22:32;13.70;83.30
16517;DHT22;8371;52.272;9.746;2022-12-24T14:27:42;13.50;82.40
16517;DHT22;8371;52.272;9.746;2022-12-24T14:30:24;13.40;82.60
16517;DHT22;8371;52.272;9.746;2022-12-24T14:32:51;13.30;82.60
16517;DHT22;8371;52.272;9.746;2022-12-24T14:35:20;13.30;82.70
16517;DHT22;8371;52.272;9.746;2022-12-24T14:37:48;13.20;82.80
16517;DHT22;8371;52.272;9.746;2022-12-24T14:40:17;13.20;82.50
16517;DHT22;8371;52.272;9.746;2022-12-24T14:43:02;13.10;82.20
16517;DHT22;8371;52.272;9.746;2022-12-24T14:48:24;12.90;81.90
16517;DHT22;8371;52.272;9.746;2022-12-24T14:56:19;12.60;82.50
16517;DHT22;8371;52.272;9.746;2022-12-24T14:58:46;12.60;82.80
16517;DHT22;8371;52.272;9.746;2022-12-24T15:01:26;12.50;83.80
16517;DHT22;8371;52.272;9.746;2022-12-24T15:06:43;12.50;83.50
16517;DHT22;8371;52.272;9.746;2022-12-24T15:11:46;12.50;83.50
16517;DHT22;8371;52.272;9.746;2022-12-24T15:14:13;12.50;83.60
16517;DHT22;8371;52.272;9.746;2022-12-24T15:16:39;12.50;83.50
16517;DHT22;8371;52.272;9.746;2022-12-24T15:19:10;12.50;83.40
16517;DHT22;8371;52.272;9.746;2022-12-24T15:21:38;12.50;83.20
16517;DHT22;8371;52.272;9.746;2022-12-24T15:24:30;12.40;83.00
16517;DHT22;8371;52.272;9.746;2022-12-24T15:26:54;12.40;83.00
16517;DHT22;8371;52.272;9.746;2022-12-24T15:29:23;12.30;82.80
16517;DHT22;8371;52.272;9.746;2022-12-24T15:31:57;12.30;82.80
16517;DHT22;8371;52.272;9.746;2022-12-24T15:34:26;12.30;82.90
16517;DHT22;8371;52.272;9.746;2022-12-24T15:37:00;12.20;82.90
16517;DHT22;8371;52.272;9.746;2022-12-24T15:39:27;12.20;82.80
16517;DHT22;8371;52.272;9.746;2022-12-24T15:41:52;12.10;82.70
16517;DHT22;8371;52.272;9.746;2022-12-24T15:44:37;12.10;82.70
16517;DHT22;8371;52.272;9.746;2022-12-24T15:47:07;12.00;82.80
16517;DHT22;8371;52.272;9.746;2022-12-24T15:49:34;11.90;83.30
16517;DHT22;8371;52.272;9.746;2022-12-24T15:52:11;11.80;82.70
16517;DHT22;8371;52.272;9.746;2022-12-24T15:54:46;11.80;83.00
16517;DHT22;8371;52.272;9.746;2022-12-24T15:57:19;11.70;83.10
16517;DHT22;8371;52.272;9.746;2022-12-24T15:59:41;11.70;83.10
16517;DHT22;8371;52.272;9.746;2022-12-24T16:02:32;11.70;83.10
16517;DHT22;8371;52.272;9.746;2022-12-24T16:05:30;11.60;83.00
16517;DHT22;8371;52.272;9.746;2022-12-24T16:10:32;11.60;83.20
16517;DHT22;8371;52.272;9.746;2022-12-24T16:12:59;11.50;83.20
16517;DHT22;8371;52.272;9.746;2022-12-24T16:15:25;11.40;83.20
16517;DHT22;8371;52.272;9.746;2022-12-24T16:17:51;11.50;83.30
16517;DHT22;8371;52.272;9.746;2022-12-24T16:20:19;11.40;83.50
16517;DHT22;8371;52.272;9.746;2022-12-24T16:22:46;11.40;83.80
16517;DHT22;8371;52.272;9.746;2022-12-24T16:25:27;11.40;83.90
16517;DHT22;8371;52.272;9.746;2022-12-24T16:27:52;11.40;84.00
16517;DHT22;8371;52.272;9.746;2022-12-24T16:30:19;11.40;83.90
16517;DHT22;8371;52.272;9.746;2022-12-24T16:32:46;11.40;83.80
16517;DHT22;8371;52.272;9.746;2022-12-24T16:35:26;11.40;83.60
16517;DHT22;8371;52.272;9.746;2022-12-24T16:37:53;11.40;83.50
16517;DHT22;8371;52.272;9.746;2022-12-24T16:40:19;11.30;83.20
16517;DHT22;8371;52.272;9.746;2022-12-24T16:42:44;11.30;83.20
16517;DHT22;8371;52.272;9.746;2022-12-24T16:45:29;11.30;83.20
16517;DHT22;8371;52.272;9.746;2022-12-24T16:47:57;11.20;83.20
16517;DHT22;8371;52.272;9.746;2022-12-24T16:50:23;11.20;83.50
16517;DHT22;8371;52.272;9.746;2022-12-24T16:52:48;11.10;83.70
16517;DHT22;8371;52.272;9.746;2022-12-24T16:55:14;11.10;83.80
16517;DHT22;8371;52.272;9.746;2022-12-24T16:57:41;11.10;83.80
16517;DHT22;8371;52.272;9.746;2022-12-24T17:00:16;11.10;83.90
16517;DHT22;8371;52.272;9.746;2022-12-24T17:02:43;11.00;83.70
16517;DHT22;8371;52.272;9.746;2022-12-24T17:05:09;11.00;83.70
16517;DHT22;8371;52.272;9.746;2022-12-24T17:07:35;11.00;83.70
16517;DHT22;8371;52.272;9.746;2022-12-24T17:10:01;11.00;83.80
16517;DHT22;8371;52.272;9.746;2022-12-24T17:12:26;10.90;83.90
16517;DHT22;8371;52.272;9.746;2022-12-24T17:14:52;10.90;83.90
16517;DHT22;8371;52.272;9.746;2022-12-24T17:17:23;11.00;83.90
16517;DHT22;8371;52.272;9.746;2022-12-24T17:19:50;10.90;83.90
16517;DHT22;8371;52.272;9.746;2022-12-24T17:22:15;10.90;83.80
16517;DHT22;8371;52.272;9.746;2022-12-24T17:24:41;10.80;83.70
16517;DHT22;8371;52.272;9.746;2022-12-24T17:27:07;10.80;83.80
16517;DHT22;8371;52.272;9.746;2022-12-24T17:29:33;10.80;83.80
16517;DHT22;8371;52.272;9.746;2022-12-24T17:31:58;10.70;83.80